sensor_id;sensor_type;location;lat;lon;timestamp;pressure;altitude;pressure_sealevel;temperature;humidity
8501;BME280;4288;48.484;10.024;2022-07-05T00:00:00;95905.66;;;23.38;68.74
8501;BME280;4288;48.484;10.024;2022-07-05T00:02:27;95898.97;;;23.39;68.75
8501;BME280;4288;48.484;10.024;2022-07-05T00:04:54;95909.13;;;23.39;69.30
8501;BME280;4288;48.484;10.024;2022-07-05T00:07:21;95897.91;;;23.37;68.73
8501;BME280;4288;48.484;10.024;2022-07-05T00:09:52;95899.88;;;23.36;68.76
8501;BME280;4288;48.484;10.024;2022-07-05T00:12:22;95897.59;;;23.35;68.70
8501;BME280;4288;48.484;10.024;2022-07-05T00:14:50;95895.00;;;23.31;69.00
8501;BME280;4288;48.484;10.024;2022-07-05T00:17:18;95895.78;;;23.32;68.78
8501;BME280;4288;48.484;10.024;2022-07-05T00:19:45;95893.06;;;23.32;69.11
8501;BME280;4288;48.484;10.024;2022-07-05T00:22:13;95894.28;;;23.31;68.94
8501;BME280;4288;48.484;10.024;2022-07-05T00:24:40;95890.44;;;23.28;69.06
8501;BME280;4288;48.484;10.024;2022-07-05T00:27:09;95902.13;;;23.29;69.09
8501;BME280;4288;48.484;10.024;2022-07-05T00:29:36;95901.81;;;23.27;68.78
8501;BME280;4288;48.484;10.024;2022-07-05T00:32:04;95898.31;;;23.26;68.91
8501;BME280;4288;48.484;10.024;2022-07-05T00:34:31;95903.78;;;23.26;68.98
8501;BME280;4288;48.484;10.024;2022-07-05T00:36:58;95903.00;;;23.26;69.14
8501;BME280;4288;48.484;10.024;2022-07-05T00:39:25;95903.47;;;23.24;68.93
8501;BME280;4288;48.484;10.024;2022-07-05T00:41:53;95902.41;;;23.22;69.06
8501;BME280;4288;48.484;10.024;2022-07-05T00:44:31;95907.84;;;23.22;68.82
8501;BME280;4288;48.484;10.024;2022-07-05T00:46:59;95899.69;;;23.22;68.97
8501;BME280;4288;48.484;10.024;2022-07-05T00:49:26;95896.63;;;23.20;68.96
8501;BME280;4288;48.484;10.024;2022-07-05T00:51:53;95897.41;;;23.20;68.63
8501;BME280;4288;48.484;10.024;2022-07-05T00:54:21;95895.13;;;23.19;68.91
8501;BME280;4288;48.484;10.024;2022-07-05T00:56:48;95894.81;;;23.17;68.80
8501;BME280;4288;48.484;10.024;2022-07-05T00:59:15;95896.03;;;23.16;68.84
8501;BME280;4288;48.484;10.024;2022-07-05T01:01:44;95903.91;;;23.14;68.76
8501;BME280;4288;48.484;10.024;2022-07-05T01:04:12;95890.72;;;23.12;68.55
8501;BME280;4288;48.484;10.024;2022-07-05T01:06:40;95899.34;;;23.11;68.45
8501;BME280;4288;48.484;10.024;2022-07-05T01:09:10;95906.00;;;23.10;68.86
8501;BME280;4288;48.484;10.024;2022-07-05T01:11:39;95891.03;;;23.05;68.53
8501;BME280;4288;48.484;10.024;2022-07-05T01:14:06;95896.78;;;23.07;68.84
8501;BME280;4288;48.484;10.024;2022-07-05T01:16:38;95887.06;;;23.06;68.94
8501;BME280;4288;48.484;10.024;2022-07-05T01:19:08;95883.28;;;23.03;68.63
8501;BME280;4288;48.484;10.024;2022-07-05T01:21:39;95891.44;;;23.03;68.89
8501;BME280;4288;48.484;10.024;2022-07-05T01:24:09;95884.94;;;23.01;68.71
8501;BME280;4288;48.484;10.024;2022-07-05T01:26:37;95884.19;;;23.00;68.54
8501;BME280;4288;48.484;10.024;2022-07-05T01:29:05;95886.59;;;22.98;68.62
8501;BME280;4288;48.484;10.024;2022-07-05T01:31:32;95882.38;;;22.97;68.28
8501;BME280;4288;48.484;10.024;2022-07-05T01:33:59;95889.78;;;22.97;68.44
8501;BME280;4288;48.484;10.024;2022-07-05T01:36:27;95883.56;;;22.96;68.36
8501;BME280;4288;48.484;10.024;2022-07-05T01:38:54;95880.06;;;22.96;68.00
8501;BME280;4288;48.484;10.024;2022-07-05T01:41:22;95890.69;;;22.94;68.47
8501;BME280;4288;48.484;10.024;2022-07-05T01:43:50;95892.66;;;22.93;68.25
8501;BME280;4288;48.484;10.024;2022-07-05T01:46:17;95891.59;;;22.91;68.32
8501;BME280;4288;48.484;10.024;2022-07-05T01:48:51;95888.09;;;22.90;68.08
8501;BME280;4288;48.484;10.024;2022-07-05T01:51:30;95891.28;;;22.89;67.73
8501;BME280;4288;48.484;10.024;2022-07-05T01:54:00;95892.94;;;22.86;67.47
8501;BME280;4288;48.484;10.024;2022-07-05T01:56:28;95890.97;;;22.87;67.44
8501;BME280;4288;48.484;10.024;2022-07-05T01:58:57;95884.44;;;22.84;67.44
8501;BME280;4288;48.484;10.024;2022-07-05T02:01:34;95891.13;;;22.83;67.04
8501;BME280;4288;48.484;10.024;2022-07-05T02:04:03;95888.84;;;22.82;67.07
8501;BME280;4288;48.484;10.024;2022-07-05T02:06:32;95896.72;;;22.80;66.76
8501;BME280;4288;48.484;10.024;2022-07-05T02:08:59;95900.19;;;22.80;66.96
8501;BME280;4288;48.484;10.024;2022-07-05T02:11:28;95891.69;;;22.78;66.87
8501;BME280;4288;48.484;10.024;2022-07-05T02:13:55;95892.16;;;22.77;67.01
8501;BME280;4288;48.484;10.024;2022-07-05T02:16:24;95894.09;;;22.76;66.84
8501;BME280;4288;48.484;10.024;2022-07-05T02:18:52;95889.13;;;22.75;66.74
8501;BME280;4288;48.484;10.024;2022-07-05T02:21:19;95896.97;;;22.73;66.62
8501;BME280;4288;48.484;10.024;2022-07-05T02:23:47;95891.97;;;22.71;66.76
8501;BME280;4288;48.484;10.024;2022-07-05T02:26:14;95888.94;;;22.69;66.75
8501;BME280;4288;48.484;10.024;2022-07-05T02:28:43;95892.91;;;22.68;66.88
8501;BME280;4288;48.484;10.024;2022-07-05T02:31:10;95892.59;;;22.66;66.56
8501;BME280;4288;48.484;10.024;2022-07-05T02:33:38;95895.00;;;22.64;66.65
8501;BME280;4288;48.484;10.024;2022-07-05T02:36:07;95895.41;;;22.63;66.50
8501;BME280;4288;48.484;10.024;2022-07-05T02:38:35;95892.38;;;22.61;66.14
8501;BME280;4288;48.484;10.024;2022-07-05T02:41:05;95891.34;;;22.58;66.06
8501;BME280;4288;48.484;10.024;2022-07-05T02:43:33;95892.53;;;22.57;65.83
8501;BME280;4288;48.484;10.024;2022-07-05T02:46:03;95887.50;;;22.56;66.02
8501;BME280;4288;48.484;10.024;2022-07-05T02:48:32;95889.16;;;22.53;65.50
8501;BME280;4288;48.484;10.024;2022-07-05T02:51:01;95888.84;;;22.51;65.83
8501;BME280;4288;48.484;10.024;2022-07-05T02:53:29;95890.06;;;22.50;65.35
8501;BME280;4288;48.484;10.024;2022-07-05T02:55:57;95892.03;;;22.50;65.31
8501;BME280;4288;48.484;10.024;2022-07-05T02:58:24;95895.66;;;22.47;65.55
8501;BME280;4288;48.484;10.024;2022-07-05T03:00:52;95904.56;;;22.47;65.42
8501;BME280;4288;48.484;10.024;2022-07-05T03:03:21;95902.28;;;22.46;65.10
8501;BME280;4288;48.484;10.024;2022-07-05T03:05:48;95900.47;;;22.43;65.48
8501;BME280;4288;48.484;10.024;2022-07-05T03:08:15;95898.94;;;22.42;65.34
8501;BME280;4288;48.484;10.024;2022-07-05T03:10:42;95904.06;;;22.40;65.01
8501;BME280;4288;48.484;10.024;2022-07-05T03:13:10;95902.56;;;22.39;65.23
8501;BME280;4288;48.484;10.024;2022-07-05T03:15:37;95901.50;;;22.36;65.12
8501;BME280;4288;48.484;10.024;2022-07-05T03:18:04;95903.13;;;22.34;65.18
8501;BME280;4288;48.484;10.024;2022-07-05T03:20:33;95903.59;;;22.32;64.95
8501;BME280;4288;48.484;10.024;2022-07-05T03:23:00;95902.41;;;22.33;65.08
8501;BME280;4288;48.484;10.024;2022-07-05T03:25:27;95905.53;;;22.32;64.84
8501;BME280;4288;48.484;10.024;2022-07-05T03:27:54;95911.00;;;22.32;65.34
8501;BME280;4288;48.484;10.024;2022-07-05T03:30:21;95908.72;;;22.30;65.05
8501;BME280;4288;48.484;10.024;2022-07-05T03:32:49;95909.16;;;22.29;64.67
8501;BME280;4288;48.484;10.024;2022-07-05T03:35:16;95920.53;;;22.27;64.48
8501;BME280;4288;48.484;10.024;2022-07-05T03:37:45;95919.00;;;22.26;64.40
8501;BME280;4288;48.484;10.024;2022-07-05T03:40:12;95920.63;;;22.24;64.43
8501;BME280;4288;48.484;10.024;2022-07-05T03:42:39;95917.16;;;22.23;64.68
8501;BME280;4288;48.484;10.024;2022-07-05T03:45:08;95924.56;;;22.23;65.04
8501;BME280;4288;48.484;10.024;2022-07-05T03:47:36;95920.31;;;22.22;64.95
8501;BME280;4288;48.484;10.024;2022-07-05T03:50:04;95926.22;;;22.20;64.81
8501;BME280;4288;48.484;10.024;2022-07-05T03:52:32;95932.09;;;22.19;64.73
8501;BME280;4288;48.484;10.024;2022-07-05T03:55:00;95927.88;;;22.18;64.70
8501;BME280;4288;48.484;10.024;2022-07-05T03:57:27;95933.00;;;22.16;64.49
8501;BME280;4288;48.484;10.024;2022-07-05T03:59:55;95932.25;;;22.15;64.78
8501;BME280;4288;48.484;10.024;2022-07-05T04:02:22;95939.19;;;22.16;65.00
8501;BME280;4288;48.484;10.024;2022-07-05T04:04:49;95945.09;;;22.14;64.63
8501;BME280;4288;48.484;10.024;2022-07-05T04:07:16;95940.88;;;22.13;64.54
8501;BME280;4288;48.484;10.024;2022-07-05T04:09:43;95943.59;;;22.13;64.17
8501;BME280;4288;48.484;10.024;2022-07-05T04:12:12;95945.09;;;22.14;64.23
8501;BME280;4288;48.484;10.024;2022-07-05T04:14:39;95946.50;;;22.19;64.63
8501;BME280;4288;48.484;10.024;2022-07-05T04:17:07;95951.03;;;22.22;64.90
8501;BME280;4288;48.484;10.024;2022-07-05T04:19:34;95947.13;;;22.23;64.39
8501;BME280;4288;48.484;10.024;2022-07-05T04:22:01;95949.53;;;22.21;64.24
8501;BME280;4288;48.484;10.024;2022-07-05T04:24:28;95948.00;;;22.20;64.02
8501;BME280;4288;48.484;10.024;2022-07-05T04:26:55;95949.22;;;22.19;63.85
8501;BME280;4288;48.484;10.024;2022-07-05T04:29:24;95941.03;;;22.19;63.82
8501;BME280;4288;48.484;10.024;2022-07-05T04:31:51;95937.88;;;22.21;63.81
8501;BME280;4288;48.484;10.024;2022-07-05T04:34:18;95943.31;;;22.21;63.94
8501;BME280;4288;48.484;10.024;2022-07-05T04:36:45;95941.03;;;22.19;63.79
8501;BME280;4288;48.484;10.024;2022-07-05T04:39:13;95938.78;;;22.18;63.50
8501;BME280;4288;48.484;10.024;2022-07-05T04:41:40;95937.69;;;22.15;63.50
8501;BME280;4288;48.484;10.024;2022-07-05T04:44:07;95940.09;;;22.13;63.61
8501;BME280;4288;48.484;10.024;2022-07-05T04:46:35;95938.25;;;22.10;63.46
8501;BME280;4288;48.484;10.024;2022-07-05T04:49:03;95940.66;;;22.08;63.43
8501;BME280;4288;48.484;10.024;2022-07-05T04:51:30;95939.16;;;22.07;63.75
8501;BME280;4288;48.484;10.024;2022-07-05T04:53:57;95938.81;;;22.05;63.72
8501;BME280;4288;48.484;10.024;2022-07-05T04:56:24;95947.75;;;22.05;63.36
8501;BME280;4288;48.484;10.024;2022-07-05T04:58:52;95946.22;;;22.04;63.73
8501;BME280;4288;48.484;10.024;2022-07-05T05:01:19;95948.22;;;22.04;63.76
8501;BME280;4288;48.484;10.024;2022-07-05T05:03:47;95947.00;;;22.05;63.69
8501;BME280;4288;48.484;10.024;2022-07-05T05:06:15;95954.41;;;22.04;63.86
8501;BME280;4288;48.484;10.024;2022-07-05T05:08:42;95946.22;;;22.04;63.94
8501;BME280;4288;48.484;10.024;2022-07-05T05:11:10;95946.22;;;22.04;64.19
8501;BME280;4288;48.484;10.024;2022-07-05T05:13:37;95948.22;;;22.04;64.15
8501;BME280;4288;48.484;10.024;2022-07-05T05:16:04;95942.78;;;22.04;64.20
8501;BME280;4288;48.484;10.024;2022-07-05T05:18:32;95943.19;;;22.02;64.52
8501;BME280;4288;48.484;10.024;2022-07-05T05:21:00;95948.63;;;22.02;64.13
8501;BME280;4288;48.484;10.024;2022-07-05T05:23:27;95944.72;;;22.03;64.21
8501;BME280;4288;48.484;10.024;2022-07-05T05:25:54;95941.22;;;22.03;64.55
8501;BME280;4288;48.484;10.024;2022-07-05T05:28:22;95942.44;;;22.02;64.53
8501;BME280;4288;48.484;10.024;2022-07-05T05:30:49;95949.84;;;22.01;65.08
8501;BME280;4288;48.484;10.024;2022-07-05T05:33:16;95950.63;;;22.02;64.93
8501;BME280;4288;48.484;10.024;2022-07-05T05:35:43;95954.84;;;22.03;65.14
8501;BME280;4288;48.484;10.024;2022-07-05T05:38:12;95947.91;;;22.02;65.42
8501;BME280;4288;48.484;10.024;2022-07-05T05:40:39;95952.13;;;22.03;65.54
8501;BME280;4288;48.484;10.024;2022-07-05T05:43:09;95947.44;;;22.03;65.49
8501;BME280;4288;48.484;10.024;2022-07-05T05:45:36;95954.41;;;22.04;66.13
8501;BME280;4288;48.484;10.024;2022-07-05T05:48:04;95954.72;;;22.06;66.28
8501;BME280;4288;48.484;10.024;2022-07-05T05:50:34;95955.94;;;22.05;66.12
8501;BME280;4288;48.484;10.024;2022-07-05T05:53:02;95952.00;;;22.06;66.57
8501;BME280;4288;48.484;10.024;2022-07-05T05:55:32;95950.03;;;22.07;66.51
8501;BME280;4288;48.484;10.024;2022-07-05T05:58:11;95962.34;;;22.11;66.93
8501;BME280;4288;48.484;10.024;2022-07-05T06:00:38;95966.56;;;22.12;67.00
8501;BME280;4288;48.484;10.024;2022-07-05T06:03:06;95965.78;;;22.12;66.88
8501;BME280;4288;48.484;10.024;2022-07-05T06:05:33;95967.31;;;22.13;67.27
8501;BME280;4288;48.484;10.024;2022-07-05T06:08:00;95968.09;;;22.13;67.31
8501;BME280;4288;48.484;10.024;2022-07-05T06:10:31;95968.81;;;22.14;67.11
8501;BME280;4288;48.484;10.024;2022-07-05T06:13:00;95972.31;;;22.14;67.11
8501;BME280;4288;48.484;10.024;2022-07-05T06:15:28;95971.56;;;22.14;67.19
8501;BME280;4288;48.484;10.024;2022-07-05T06:17:55;95976.56;;;22.16;66.73
8501;BME280;4288;48.484;10.024;2022-07-05T06:20:27;95978.09;;;22.17;66.89
8501;BME280;4288;48.484;10.024;2022-07-05T06:22:55;95977.63;;;22.18;67.09
8501;BME280;4288;48.484;10.024;2022-07-05T06:25:23;95985.38;;;22.20;67.07
8501;BME280;4288;48.484;10.024;2022-07-05T06:27:53;95991.56;;;22.20;67.10
8501;BME280;4288;48.484;10.024;2022-07-05T06:30:24;95984.94;;;22.21;66.74
8501;BME280;4288;48.484;10.024;2022-07-05T06:32:52;95996.16;;;22.23;66.76
8501;BME280;4288;48.484;10.024;2022-07-05T06:35:20;95992.19;;;22.24;66.91
8501;BME280;4288;48.484;10.024;2022-07-05T06:37:49;95997.19;;;22.26;66.89
8501;BME280;4288;48.484;10.024;2022-07-05T06:40:19;95989.78;;;22.26;67.20
8501;BME280;4288;48.484;10.024;2022-07-05T06:42:47;95994.06;;;22.27;67.22
8501;BME280;4288;48.484;10.024;2022-07-05T06:45:15;95994.38;;;22.29;66.95
8501;BME280;4288;48.484;10.024;2022-07-05T06:47:43;95997.41;;;22.31;66.97
8501;BME280;4288;48.484;10.024;2022-07-05T06:50:11;95998.91;;;22.32;66.92
8501;BME280;4288;48.484;10.024;2022-07-05T06:52:38;96000.00;;;22.35;67.01
8501;BME280;4288;48.484;10.024;2022-07-05T06:55:07;96006.22;;;22.35;66.83
8501;BME280;4288;48.484;10.024;2022-07-05T06:57:34;95994.56;;;22.35;66.63
8501;BME280;4288;48.484;10.024;2022-07-05T07:00:03;95996.81;;;22.36;66.47
8501;BME280;4288;48.484;10.024;2022-07-05T07:02:32;95996.06;;;22.36;66.20
8501;BME280;4288;48.484;10.024;2022-07-05T07:05:00;95993.34;;;22.36;66.11
8501;BME280;4288;48.484;10.024;2022-07-05T07:07:28;95998.34;;;22.37;65.85
8501;BME280;4288;48.484;10.024;2022-07-05T07:10:15;96004.09;;;22.39;65.40
8501;BME280;4288;48.484;10.024;2022-07-05T07:12:42;96004.09;;;22.39;65.20
8501;BME280;4288;48.484;10.024;2022-07-05T07:15:10;96000.19;;;22.40;65.14
8501;BME280;4288;48.484;10.024;2022-07-05T07:17:38;96009.88;;;22.41;64.89
8501;BME280;4288;48.484;10.024;2022-07-05T07:20:06;96008.66;;;22.42;65.12
8501;BME280;4288;48.484;10.024;2022-07-05T07:22:34;96013.66;;;22.44;64.90
8501;BME280;4288;48.484;10.024;2022-07-05T07:25:01;96010.94;;;22.44;64.78
8501;BME280;4288;48.484;10.024;2022-07-05T07:27:28;96015.94;;;22.45;64.52
8501;BME280;4288;48.484;10.024;2022-07-05T07:29:56;96017.47;;;22.46;64.83
8501;BME280;4288;48.484;10.024;2022-07-05T07:32:23;96017.03;;;22.48;64.57
8501;BME280;4288;48.484;10.024;2022-07-05T07:34:51;96019.31;;;22.49;64.50
8501;BME280;4288;48.484;10.024;2022-07-05T07:37:18;96016.56;;;22.49;64.64
8501;BME280;4288;48.484;10.024;2022-07-05T07:39:46;96019.31;;;22.49;64.51
8501;BME280;4288;48.484;10.024;2022-07-05T07:42:13;96013.84;;;22.49;64.60
8501;BME280;4288;48.484;10.024;2022-07-05T07:44:40;96015.38;;;22.50;64.60
8501;BME280;4288;48.484;10.024;2022-07-05T07:47:07;96021.16;;;22.52;64.21
8501;BME280;4288;48.484;10.024;2022-07-05T07:49:34;96015.69;;;22.52;64.33
8501;BME280;4288;48.484;10.024;2022-07-05T07:52:04;96022.22;;;22.55;64.20
8501;BME280;4288;48.484;10.024;2022-07-05T07:54:31;96024.50;;;22.56;64.07
8501;BME280;4288;48.484;10.024;2022-07-05T07:56:58;96019.06;;;22.56;63.86
8501;BME280;4288;48.484;10.024;2022-07-05T07:59:27;96020.59;;;22.57;63.65
8501;BME280;4288;48.484;10.024;2022-07-05T08:01:54;96010.47;;;22.58;63.68
8501;BME280;4288;48.484;10.024;2022-07-05T08:04:22;96022.13;;;22.58;63.54
8501;BME280;4288;48.484;10.024;2022-07-05T08:06:49;96019.41;;;22.58;63.78
8501;BME280;4288;48.484;10.024;2022-07-05T08:09:17;96018.19;;;22.59;63.72
8501;BME280;4288;48.484;10.024;2022-07-05T08:11:46;96020.91;;;22.59;63.56
8501;BME280;4288;48.484;10.024;2022-07-05T08:14:14;96023.63;;;22.59;63.39
8501;BME280;4288;48.484;10.024;2022-07-05T08:16:41;96022.44;;;22.60;63.44
8501;BME280;4288;48.484;10.024;2022-07-05T08:19:08;96021.69;;;22.60;63.54
8501;BME280;4288;48.484;10.024;2022-07-05T08:21:53;96022.00;;;22.62;63.49
8501;BME280;4288;48.484;10.024;2022-07-05T08:24:22;96020.47;;;22.61;63.44
8501;BME280;4288;48.484;10.024;2022-07-05T08:26:49;96022.00;;;22.62;63.29
8501;BME280;4288;48.484;10.024;2022-07-05T08:29:16;96022.00;;;22.62;63.11
8501;BME280;4288;48.484;10.024;2022-07-05T08:31:46;96015.78;;;22.61;63.11
8501;BME280;4288;48.484;10.024;2022-07-05T08:34:14;96020.03;;;22.62;62.97
8501;BME280;4288;48.484;10.024;2022-07-05T08:36:41;96022.00;;;22.62;62.57
8501;BME280;4288;48.484;10.024;2022-07-05T08:39:09;96025.47;;;22.62;62.95
8501;BME280;4288;48.484;10.024;2022-07-05T08:41:39;96017.31;;;22.62;62.65
8501;BME280;4288;48.484;10.024;2022-07-05T08:44:07;96018.81;;;22.63;62.96
8501;BME280;4288;48.484;10.024;2022-07-05T08:46:38;96018.06;;;22.63;62.47
8501;BME280;4288;48.484;10.024;2022-07-05T08:49:06;96019.59;;;22.64;62.43
8501;BME280;4288;48.484;10.024;2022-07-05T08:51:37;96015.63;;;22.65;62.35
8501;BME280;4288;48.484;10.024;2022-07-05T08:54:05;96013.69;;;22.65;62.70
8501;BME280;4288;48.484;10.024;2022-07-05T08:56:34;96012.91;;;22.65;62.43
8501;BME280;4288;48.484;10.024;2022-07-05T08:59:04;96011.72;;;22.66;62.48
8501;BME280;4288;48.484;10.024;2022-07-05T09:01:32;96004.31;;;22.66;62.12
8501;BME280;4288;48.484;10.024;2022-07-05T09:04:04;96003.09;;;22.67;62.21
8501;BME280;4288;48.484;10.024;2022-07-05T09:06:34;96007.78;;;22.67;62.46
8501;BME280;4288;48.484;10.024;2022-07-05T09:09:03;96011.59;;;22.69;62.16
8501;BME280;4288;48.484;10.024;2022-07-05T09:11:36;96013.09;;;22.70;62.20
8501;BME280;4288;48.484;10.024;2022-07-05T09:14:07;96011.13;;;22.71;62.56
8501;BME280;4288;48.484;10.024;2022-07-05T09:16:34;96012.34;;;22.70;62.45
8501;BME280;4288;48.484;10.024;2022-07-05T09:19:06;96014.63;;;22.71;61.78
8501;BME280;4288;48.484;10.024;2022-07-05T09:21:34;96013.41;;;22.72;61.79
8501;BME280;4288;48.484;10.024;2022-07-05T09:24:04;96017.81;;;22.70;61.50
8501;BME280;4288;48.484;10.024;2022-07-05T09:26:35;96014.63;;;22.71;61.23
8501;BME280;4288;48.484;10.024;2022-07-05T09:29:07;96018.53;;;22.70;61.23
8501;BME280;4288;48.484;10.024;2022-07-05T09:31:36;96017.34;;;22.71;61.57
8501;BME280;4288;48.484;10.024;2022-07-05T09:34:04;96020.84;;;22.72;61.60
8501;BME280;4288;48.484;10.024;2022-07-05T09:36:52;96018.53;;;22.70;61.79
8501;BME280;4288;48.484;10.024;2022-07-05T09:39:48;96022.03;;;22.71;61.86
8501;BME280;4288;48.484;10.024;2022-07-05T09:42:17;96022.03;;;22.71;61.82
8501;BME280;4288;48.484;10.024;2022-07-05T09:44:48;96020.06;;;22.71;61.89
8501;BME280;4288;48.484;10.024;2022-07-05T09:47:18;96012.97;;;22.74;62.02
8501;BME280;4288;48.484;10.024;2022-07-05T09:49:48;96017.66;;;22.73;61.97
8501;BME280;4288;48.484;10.024;2022-07-05T09:52:29;96016.44;;;22.74;62.09
8501;BME280;4288;48.484;10.024;2022-07-05T09:55:05;96013.28;;;22.76;62.11
8501;BME280;4288;48.484;10.024;2022-07-05T09:57:34;96016.75;;;22.76;61.87
8501;BME280;4288;48.484;10.024;2022-07-05T10:00:06;96025.69;;;22.77;61.91
8501;BME280;4288;48.484;10.024;2022-07-05T10:02:38;96022.22;;;22.76;62.39
8501;BME280;4288;48.484;10.024;2022-07-05T10:05:11;96023.44;;;22.75;62.30
8501;BME280;4288;48.484;10.024;2022-07-05T10:07:40;96024.63;;;22.74;62.31
8501;BME280;4288;48.484;10.024;2022-07-05T10:10:09;96022.66;;;22.75;62.67
8501;BME280;4288;48.484;10.024;2022-07-05T10:12:37;96023.44;;;22.75;62.59
8501;BME280;4288;48.484;10.024;2022-07-05T10:15:10;96033.88;;;22.77;62.28
8501;BME280;4288;48.484;10.024;2022-07-05T10:17:41;96026.16;;;22.75;62.49
8501;BME280;4288;48.484;10.024;2022-07-05T10:20:17;96022.22;;;22.76;62.34
8501;BME280;4288;48.484;10.024;2022-07-05T10:22:47;96028.44;;;22.77;62.52
8501;BME280;4288;48.484;10.024;2022-07-05T10:25:15;96033.44;;;22.78;62.89
8501;BME280;4288;48.484;10.024;2022-07-05T10:27:43;96034.66;;;22.77;62.89
8501;BME280;4288;48.484;10.024;2022-07-05T10:30:13;96038.88;;;22.78;62.91
8501;BME280;4288;48.484;10.024;2022-07-05T10:32:41;96033.44;;;22.78;63.15
8501;BME280;4288;48.484;10.024;2022-07-05T10:35:09;96039.66;;;22.79;62.62
8501;BME280;4288;48.484;10.024;2022-07-05T10:37:37;96029.19;;;22.77;62.48
8501;BME280;4288;48.484;10.024;2022-07-05T10:40:06;96031.91;;;22.77;62.95
8501;BME280;4288;48.484;10.024;2022-07-05T10:42:39;96034.66;;;22.77;63.02
8501;BME280;4288;48.484;10.024;2022-07-05T10:45:28;96035.41;;;22.78;63.31
8501;BME280;4288;48.484;10.024;2022-07-05T10:48:19;96035.41;;;22.78;63.19
8501;BME280;4288;48.484;10.024;2022-07-05T10:50:52;96031.47;;;22.79;63.38
8501;BME280;4288;48.484;10.024;2022-07-05T10:53:21;96031.00;;;22.80;63.06
8501;BME280;4288;48.484;10.024;2022-07-05T10:55:55;96034.50;;;22.81;63.30
8501;BME280;4288;48.484;10.024;2022-07-05T10:58:29;96032.56;;;22.81;63.35
8501;BME280;4288;48.484;10.024;2022-07-05T11:01:43;96031.34;;;22.82;63.50
8501;BME280;4288;48.484;10.024;2022-07-05T11:04:28;96021.19;;;22.83;63.20
8501;BME280;4288;48.484;10.024;2022-07-05T11:07:04;96014.56;;;22.84;63.46
8501;BME280;4288;48.484;10.024;2022-07-05T11:09:33;96021.97;;;22.83;63.31
8501;BME280;4288;48.484;10.024;2022-07-05T11:12:09;96023.47;;;22.84;63.26
8501;BME280;4288;48.484;10.024;2022-07-05T11:14:47;96018.00;;;22.84;63.58
8501;BME280;4288;48.484;10.024;2022-07-05T11:17:24;96016.81;;;22.85;63.44
8501;BME280;4288;48.484;10.024;2022-07-05T11:20:27;96026.97;;;22.85;63.64
8501;BME280;4288;48.484;10.024;2022-07-05T11:23:04;96027.28;;;22.87;63.49
8501;BME280;4288;48.484;10.024;2022-07-05T11:25:34;96028.03;;;22.87;63.08
8501;BME280;4288;48.484;10.024;2022-07-05T11:28:17;96017.13;;;22.87;63.36
8501;BME280;4288;48.484;10.024;2022-07-05T11:30:50;96024.88;;;22.89;63.52
8501;BME280;4288;48.484;10.024;2022-07-05T11:33:42;96024.88;;;22.89;63.14
8501;BME280;4288;48.484;10.024;2022-07-05T11:36:22;96021.22;;;22.92;63.47
8501;BME280;4288;48.484;10.024;2022-07-05T11:39:13;96026.25;;;22.93;63.21
8501;BME280;4288;48.484;10.024;2022-07-05T11:41:46;96016.09;;;22.94;63.45
8501;BME280;4288;48.484;10.024;2022-07-05T11:44:14;96015.34;;;22.93;63.56
8501;BME280;4288;48.484;10.024;2022-07-05T11:46:42;96021.13;;;22.95;63.72
8501;BME280;4288;48.484;10.024;2022-07-05T11:49:11;96014.13;;;22.94;63.51
8501;BME280;4288;48.484;10.024;2022-07-05T11:51:39;96016.09;;;22.94;63.63
8501;BME280;4288;48.484;10.024;2022-07-05T11:54:09;96019.59;;;22.94;63.47
8501;BME280;4288;48.484;10.024;2022-07-05T11:56:36;96006.41;;;22.93;63.35
8501;BME280;4288;48.484;10.024;2022-07-05T11:59:17;96008.69;;;22.94;63.83
8501;BME280;4288;48.484;10.024;2022-07-05T12:01:45;96006.72;;;22.95;63.86
8501;BME280;4288;48.484;10.024;2022-07-05T12:04:21;95991.88;;;22.96;63.34
8501;BME280;4288;48.484;10.024;2022-07-05T12:06:48;95998.84;;;22.97;63.61
8501;BME280;4288;48.484;10.024;2022-07-05T12:09:23;96004.63;;;22.99;63.89
8501;BME280;4288;48.484;10.024;2022-07-05T12:11:51;95992.94;;;22.98;63.80
8501;BME280;4288;48.484;10.024;2022-07-05T12:14:35;95999.94;;;22.99;63.93
8501;BME280;4288;48.484;10.024;2022-07-05T12:17:12;96000.66;;;23.00;63.82
8501;BME280;4288;48.484;10.024;2022-07-05T12:19:41;95999.16;;;22.99;63.87
8501;BME280;4288;48.484;10.024;2022-07-05T12:22:08;95997.19;;;22.99;63.75
8501;BME280;4288;48.484;10.024;2022-07-05T12:24:35;96004.94;;;23.01;64.04
8501;BME280;4288;48.484;10.024;2022-07-05T12:27:04;96000.66;;;23.00;63.78
8501;BME280;4288;48.484;10.024;2022-07-05T12:29:31;96000.97;;;23.02;63.89
8501;BME280;4288;48.484;10.024;2022-07-05T12:32:00;95998.56;;;23.04;63.93
8501;BME280;4288;48.484;10.024;2022-07-05T12:34:28;95995.38;;;23.06;63.58
8501;BME280;4288;48.484;10.024;2022-07-05T12:36:57;96002.06;;;23.05;63.98
8501;BME280;4288;48.484;10.024;2022-07-05T12:39:25;95995.84;;;23.04;64.04
8501;BME280;4288;48.484;10.024;2022-07-05T12:41:52;96002.81;;;23.05;64.18
8501;BME280;4288;48.484;10.024;2022-07-05T12:44:21;96000.84;;;23.06;63.83
8501;BME280;4288;48.484;10.024;2022-07-05T12:46:49;95995.38;;;23.06;64.07
8501;BME280;4288;48.484;10.024;2022-07-05T12:49:17;95998.88;;;23.06;63.99
8501;BME280;4288;48.484;10.024;2022-07-05T12:51:46;95997.69;;;23.07;63.80
8501;BME280;4288;48.484;10.024;2022-07-05T12:54:22;95986.78;;;23.07;63.83
8501;BME280;4288;48.484;10.024;2022-07-05T12:57:08;95985.56;;;23.08;63.75
8501;BME280;4288;48.484;10.024;2022-07-05T13:00:00;95991.78;;;23.09;63.90
8501;BME280;4288;48.484;10.024;2022-07-05T13:02:40;95989.81;;;23.09;63.78
8501;BME280;4288;48.484;10.024;2022-07-05T13:05:09;95995.28;;;23.09;63.77
8501;BME280;4288;48.484;10.024;2022-07-05T13:07:43;95995.28;;;23.09;63.68
8501;BME280;4288;48.484;10.024;2022-07-05T13:10:16;95996.00;;;23.10;64.25
8501;BME280;4288;48.484;10.024;2022-07-05T13:12:44;95990.56;;;23.10;63.91
8501;BME280;4288;48.484;10.024;2022-07-05T13:15:11;95996.31;;;23.12;64.05
8501;BME280;4288;48.484;10.024;2022-07-05T13:17:39;95999.81;;;23.12;63.95
8501;BME280;4288;48.484;10.024;2022-07-05T13:20:08;95994.34;;;23.12;63.64
8501;BME280;4288;48.484;10.024;2022-07-05T13:22:36;95995.88;;;23.13;63.62